createdAt,value
2023-04-27T00:01:17.009Z,12.60
2023-04-27T00:03:47.515Z,12.60
2023-04-27T00:06:16.258Z,12.60
2023-04-27T00:08:44.676Z,12.60
2023-04-27T00:11:13.160Z,12.70
2023-04-27T00:13:41.592Z,12.80
2023-04-27T00:16:10.125Z,12.70
2023-04-27T00:18:38.646Z,12.60
2023-04-27T00:21:09.632Z,12.50
2023-04-27T00:23:38.116Z,12.50
2023-04-27T00:26:06.563Z,12.40
2023-04-27T00:28:34.986Z,12.40
2023-04-27T00:31:04.102Z,12.50
2023-04-27T00:33:32.475Z,12.40
2023-04-27T00:36:01.253Z,12.40
2023-04-27T00:38:31.089Z,12.30
2023-04-27T00:41:02.807Z,12.30
2023-04-27T00:43:31.486Z,12.40
2023-04-27T00:46:00.701Z,12.40
2023-04-27T00:48:29.381Z,12.50
2023-04-27T00:50:57.845Z,12.60
2023-04-27T00:53:26.568Z,12.60
2023-04-27T00:55:57.911Z,12.70
2023-04-27T00:58:27.036Z,12.70
2023-04-27T01:00:55.538Z,12.70
2023-04-27T01:03:24.385Z,12.70
2023-04-27T01:05:53.243Z,12.60
2023-04-27T01:08:21.734Z,12.60
2023-04-27T01:10:50.794Z,12.70
2023-04-27T01:13:20.889Z,12.70
2023-04-27T01:15:49.766Z,12.80
2023-04-27T01:18:18.239Z,12.80
2023-04-27T01:20:46.589Z,12.80
2023-04-27T01:23:17.537Z,12.80
2023-04-27T01:25:46.233Z,12.80
2023-04-27T01:28:14.670Z,12.80
2023-04-27T01:30:43.101Z,12.70
2023-04-27T01:33:11.582Z,12.70
2023-04-27T01:35:40.036Z,12.50
2023-04-27T01:38:08.517Z,12.50
2023-04-27T01:40:38.705Z,12.40
2023-04-27T01:43:07.172Z,12.20
2023-04-27T01:45:35.616Z,12.20
2023-04-27T01:48:04.499Z,12.10
2023-04-27T01:50:32.974Z,12.00
2023-04-27T01:53:01.406Z,11.90
2023-04-27T01:55:29.828Z,11.80
2023-04-27T01:57:59.681Z,11.80
2023-04-27T02:00:28.184Z,11.80
2023-04-27T02:02:57.744Z,11.80
2023-04-27T02:05:26.312Z,11.70
2023-04-27T02:07:54.727Z,11.60
2023-04-27T02:10:23.421Z,11.60
2023-04-27T02:12:51.866Z,11.60
2023-04-27T02:15:21.690Z,11.50
2023-04-27T02:17:50.226Z,11.50
2023-04-27T02:20:18.793Z,11.50
2023-04-27T02:22:47.245Z,11.40
2023-04-27T02:25:15.696Z,11.40
2023-04-27T02:27:44.490Z,11.50
2023-04-27T02:30:13.773Z,11.50
2023-04-27T02:32:44.272Z,11.60
2023-04-27T02:35:12.813Z,11.60
2023-04-27T02:37:41.276Z,11.60
2023-04-27T02:40:10.434Z,11.60
2023-04-27T02:42:39.449Z,11.60
2023-04-27T02:45:08.749Z,11.50
2023-04-27T02:47:37.230Z,11.50
2023-04-27T02:50:07.678Z,11.40
2023-04-27T02:52:36.132Z,11.30
2023-04-27T02:55:04.549Z,11.30
2023-04-27T02:57:33.030Z,11.30
2023-04-27T03:00:02.811Z,11.40
2023-04-27T03:02:32.337Z,11.50
2023-04-27T03:05:00.887Z,11.50
2023-04-27T03:07:31.758Z,11.50
2023-04-27T03:10:00.171Z,11.50
2023-04-27T03:12:28.628Z,11.50
2023-04-27T03:14:57.039Z,11.50
2023-04-27T03:17:25.701Z,11.40
2023-04-27T03:19:54.339Z,11.40
2023-04-27T03:22:22.839Z,11.40
2023-04-27T03:24:52.621Z,11.20
2023-04-27T03:27:21.205Z,11.20
2023-04-27T03:29:52.445Z,11.30
2023-04-27T03:32:20.901Z,11.30
2023-04-27T03:34:49.345Z,11.30
2023-04-27T03:37:17.794Z,11.40
2023-04-27T03:39:46.178Z,11.50
2023-04-27T03:42:16.059Z,11.50
2023-04-27T03:44:44.515Z,11.50
2023-04-27T03:47:12.913Z,11.50
2023-04-27T03:49:41.360Z,11.40
2023-04-27T03:52:09.825Z,11.40
2023-04-27T03:54:38.207Z,11.40
2023-04-27T03:57:06.669Z,11.50
2023-04-27T03:59:36.569Z,11.60
2023-04-27T04:02:05.793Z,11.70
2023-04-27T04:04:34.494Z,11.70
2023-04-27T04:07:03.267Z,11.70
2023-04-27T04:09:31.636Z,11.60
2023-04-27T04:12:00.119Z,11.70
2023-04-27T04:14:28.886Z,11.60
2023-04-27T04:16:58.782Z,11.50
2023-04-27T04:19:27.203Z,11.50
2023-04-27T04:21:57.194Z,11.50
2023-04-27T04:24:25.708Z,11.40
2023-04-27T04:26:54.112Z,11.30
2023-04-27T04:29:22.886Z,11.30
2023-04-27T04:31:51.603Z,11.30
2023-04-27T04:34:21.762Z,11.30
2023-04-27T04:36:51.814Z,11.20
2023-04-27T04:39:21.077Z,11.20
2023-04-27T04:41:50.288Z,11.30
2023-04-27T04:44:19.503Z,11.20
2023-04-27T04:46:48.461Z,11.20
2023-04-27T04:49:16.970Z,11.30
2023-04-27T04:51:47.242Z,11.40
2023-04-27T04:54:15.696Z,11.40
2023-04-27T04:56:44.093Z,11.40
2023-04-27T04:59:12.690Z,11.50
2023-04-27T05:01:41.446Z,11.50
2023-04-27T05:04:11.100Z,11.40
2023-04-27T05:06:39.707Z,11.40
2023-04-27T05:09:09.712Z,11.50
2023-04-27T05:11:38.175Z,11.50
2023-04-27T05:14:06.619Z,11.50
2023-04-27T05:16:35.317Z,11.50
2023-04-27T05:19:06.056Z,11.60
2023-04-27T05:21:34.508Z,11.60
2023-04-27T05:24:02.984Z,11.60
2023-04-27T05:26:33.169Z,11.60
2023-04-27T05:29:01.838Z,11.60
2023-04-27T05:31:30.315Z,11.60
2023-04-27T05:33:58.710Z,11.60
2023-04-27T05:36:28.678Z,11.70
2023-04-27T05:38:57.142Z,11.70
2023-04-27T05:41:25.843Z,11.80
2023-04-27T05:43:55.694Z,11.80
2023-04-27T05:46:24.227Z,11.80
2023-04-27T05:48:52.703Z,11.80
2023-04-27T05:51:21.447Z,11.90
2023-04-27T05:53:50.117Z,11.90
2023-04-27T05:56:18.640Z,12.00
2023-04-27T05:58:47.473Z,12.00
2023-04-27T06:01:17.219Z,12.10
2023-04-27T06:03:45.886Z,12.20
2023-04-27T06:06:14.459Z,12.30
2023-04-27T06:08:42.919Z,12.40
2023-04-27T06:11:11.559Z,12.50
2023-04-27T06:13:40.082Z,12.50
2023-04-27T06:16:08.610Z,12.60
2023-04-27T06:18:38.428Z,12.60
2023-04-27T06:21:07.132Z,12.70
2023-04-27T06:23:36.042Z,12.80
2023-04-27T06:26:04.525Z,12.90
2023-04-27T06:28:34.026Z,12.90
2023-04-27T06:31:02.473Z,13.00
2023-04-27T06:33:30.941Z,13.10
2023-04-27T06:36:01.843Z,13.20
2023-04-27T06:38:30.288Z,13.20
2023-04-27T06:40:59.292Z,13.30
2023-04-27T06:43:27.685Z,13.30
2023-04-27T06:45:56.115Z,13.40
2023-04-27T06:48:24.663Z,13.50
2023-04-27T06:50:53.105Z,13.60
2023-04-27T06:53:22.939Z,13.60
2023-04-27T06:55:51.790Z,13.70
2023-04-27T06:58:20.290Z,13.80
2023-04-27T07:00:48.870Z,13.80
2023-04-27T07:03:17.432Z,13.90
2023-04-27T07:05:46.732Z,14.00
2023-04-27T07:08:15.106Z,14.00
2023-04-27T07:10:44.930Z,14.10
2023-04-27T07:13:14.449Z,14.20
2023-04-27T07:15:43.117Z,14.30
2023-04-27T07:18:12.305Z,14.50
2023-04-27T07:20:41.926Z,14.50
2023-04-27T07:23:10.836Z,14.60
2023-04-27T07:25:40.364Z,14.70
2023-04-27T07:28:10.208Z,14.80
2023-04-27T07:30:38.798Z,14.90
2023-04-27T07:33:07.309Z,15.00
2023-04-27T07:35:36.037Z,15.10
2023-04-27T07:38:04.650Z,15.20
2023-04-27T07:40:34.630Z,15.40
2023-04-27T07:43:03.186Z,15.80
2023-04-27T07:45:33.231Z,16.40
2023-04-27T07:48:02.479Z,17.10
2023-04-27T07:50:31.337Z,17.70
2023-04-27T07:52:59.839Z,18.10
2023-04-27T07:55:28.671Z,18.30
2023-04-27T07:57:57.825Z,18.70
2023-04-27T08:00:26.664Z,18.80
2023-04-27T08:02:57.123Z,19.10
2023-04-27T08:05:26.007Z,19.50
2023-04-27T08:07:55.096Z,20.00
2023-04-27T08:10:23.798Z,20.40
2023-04-27T08:12:52.265Z,20.60
2023-04-27T08:15:21.486Z,20.90
2023-04-27T08:17:50.064Z,21.10
2023-04-27T08:20:20.050Z,21.30
2023-04-27T08:22:48.540Z,21.40
2023-04-27T08:25:17.240Z,21.80
2023-04-27T08:27:45.708Z,22.00
2023-04-27T08:30:14.513Z,22.00
2023-04-27T08:32:42.963Z,22.10
2023-04-27T08:35:11.632Z,22.10
2023-04-27T08:37:41.526Z,22.00
2023-04-27T08:40:10.993Z,22.00
2023-04-27T08:42:40.036Z,22.10
2023-04-27T08:45:09.580Z,22.20
2023-04-27T08:47:43.477Z,22.20
2023-04-27T08:50:12.830Z,22.30
2023-04-27T08:52:44.878Z,22.20
2023-04-27T08:55:15.833Z,22.20
2023-04-27T08:57:54.822Z,22.30
2023-04-27T09:00:23.829Z,22.30
2023-04-27T09:02:52.446Z,22.40
2023-04-27T09:05:21.870Z,22.40
2023-04-27T09:08:01.508Z,22.40
2023-04-27T09:10:30.120Z,22.40
2023-04-27T09:12:59.494Z,22.10
2023-04-27T09:15:28.537Z,21.50
2023-04-27T09:17:57.626Z,21.00
2023-04-27T09:20:27.363Z,20.70
2023-04-27T09:22:58.582Z,20.80
2023-04-27T09:25:29.796Z,20.90
2023-04-27T09:27:58.654Z,21.00
2023-04-27T09:30:27.151Z,20.80
2023-04-27T09:32:56.975Z,20.70
2023-04-27T09:35:26.174Z,20.60
2023-04-27T09:37:55.044Z,20.70
2023-04-27T09:40:26.500Z,20.90
2023-04-27T09:42:57.433Z,21.00
2023-04-27T09:45:26.036Z,21.00
2023-04-27T09:47:54.874Z,21.20
2023-04-27T09:50:23.412Z,21.20
2023-04-27T09:52:51.918Z,21.20
2023-04-27T09:55:22.154Z,21.00
2023-04-27T09:57:55.070Z,20.80
2023-04-27T10:00:35.753Z,20.70
2023-04-27T10:03:09.048Z,20.60
2023-04-27T10:05:47.279Z,20.70
2023-04-27T10:08:16.128Z,20.50
2023-04-27T10:10:48.094Z,20.10
2023-04-27T10:13:25.346Z,19.90
2023-04-27T10:15:55.592Z,19.80
2023-04-27T10:18:27.749Z,19.80
2023-04-27T10:20:56.196Z,19.60
2023-04-27T10:23:25.561Z,19.60
2023-04-27T10:25:54.795Z,19.70
2023-04-27T10:28:23.263Z,19.70
2023-04-27T10:30:52.076Z,19.50
2023-04-27T10:33:23.686Z,19.40
2023-04-27T10:35:55.930Z,19.30
2023-04-27T10:38:28.829Z,19.20
2023-04-27T10:40:57.863Z,18.90
2023-04-27T10:43:27.170Z,18.60
2023-04-27T10:45:55.844Z,18.50
2023-04-27T10:48:26.179Z,18.40
2023-04-27T10:50:54.656Z,18.40
2023-04-27T10:53:23.080Z,18.30
2023-04-27T10:55:56.051Z,18.40
2023-04-27T10:58:29.851Z,18.30
2023-04-27T11:01:03.272Z,18.20
2023-04-27T11:03:33.260Z,18.30
2023-04-27T11:06:05.514Z,18.30
2023-04-27T11:08:34.261Z,18.30
2023-04-27T11:11:02.666Z,18.50
2023-04-27T11:13:33.174Z,18.40
2023-04-27T11:16:01.704Z,18.40
2023-04-27T11:18:31.678Z,18.40
2023-04-27T11:21:08.773Z,18.60
2023-04-27T11:23:38.628Z,18.50
2023-04-27T11:26:11.021Z,18.60
2023-04-27T11:28:39.552Z,18.50
2023-04-27T11:31:08.208Z,18.40
2023-04-27T11:33:36.865Z,18.50
2023-04-27T11:36:05.502Z,18.50
2023-04-27T11:38:36.139Z,18.40
2023-04-27T11:41:05.590Z,18.40
2023-04-27T11:43:34.047Z,18.30
2023-04-27T11:46:03.944Z,18.10
2023-04-27T11:48:32.393Z,18.20
2023-04-27T11:51:01.525Z,18.10
2023-04-27T11:53:30.383Z,18.10
2023-04-27T11:56:01.158Z,18.10
2023-04-27T11:58:30.150Z,18.20
2023-04-27T12:00:58.928Z,18.20
2023-04-27T12:03:27.816Z,18.30
2023-04-27T12:05:56.806Z,18.10
2023-04-27T12:08:28.335Z,18.10
2023-04-27T12:10:57.061Z,17.70
2023-04-27T12:13:27.283Z,17.90
2023-04-27T12:15:55.772Z,18.00
2023-04-27T12:18:24.256Z,18.00
2023-04-27T12:20:53.108Z,18.00
2023-04-27T12:23:21.553Z,18.00
2023-04-27T12:25:49.945Z,18.10
2023-04-27T12:28:20.428Z,17.70
2023-04-27T12:30:50.488Z,17.60
2023-04-27T12:33:19.180Z,17.60
2023-04-27T12:35:47.703Z,17.60
2023-04-27T12:38:16.425Z,17.60
2023-04-27T12:40:44.846Z,17.70
2023-04-27T12:43:14.567Z,17.60
2023-04-27T12:45:42.959Z,17.50
2023-04-27T12:48:14.274Z,17.50
2023-04-27T12:50:44.124Z,17.60
2023-04-27T12:53:12.565Z,17.60
2023-04-27T12:55:41.062Z,17.90
2023-04-27T12:58:09.568Z,18.00
2023-04-27T13:00:38.622Z,18.00
2023-04-27T13:03:07.333Z,18.00
2023-04-27T13:05:37.322Z,18.10
2023-04-27T13:08:06.000Z,18.10
2023-04-27T13:10:34.471Z,18.00
2023-04-27T13:13:02.999Z,17.80
2023-04-27T13:15:31.738Z,17.90
2023-04-27T13:18:01.902Z,17.80
2023-04-27T13:20:30.452Z,17.60
2023-04-27T13:23:00.300Z,17.60
2023-04-27T13:25:29.158Z,17.60
2023-04-27T13:27:58.300Z,17.50
2023-04-27T13:30:26.768Z,17.70
2023-04-27T13:32:55.845Z,17.90
2023-04-27T13:35:28.310Z,17.90
2023-04-27T13:37:57.028Z,17.90
2023-04-27T13:40:26.852Z,17.90
2023-04-27T13:42:55.321Z,17.80
2023-04-27T13:45:23.790Z,17.80
2023-04-27T13:47:52.475Z,18.00
2023-04-27T13:50:21.434Z,18.10
2023-04-27T13:52:49.879Z,18.00
2023-04-27T13:55:18.336Z,18.10
2023-04-27T13:57:48.393Z,18.10
2023-04-27T14:00:17.178Z,18.00
2023-04-27T14:02:45.652Z,17.90
2023-04-27T14:05:14.186Z,17.90
2023-04-27T14:07:42.641Z,17.90
2023-04-27T14:10:11.159Z,17.90
2023-04-27T14:12:39.593Z,17.90
2023-04-27T14:15:10.137Z,17.90
2023-04-27T14:17:40.525Z,17.90
2023-04-27T14:20:09.694Z,17.80
2023-04-27T14:22:38.320Z,17.80
2023-04-27T14:25:07.240Z,17.80
2023-04-27T14:27:35.749Z,17.70
2023-04-27T14:30:04.506Z,17.70
2023-04-27T14:32:34.306Z,17.70
2023-04-27T14:35:02.870Z,17.80
2023-04-27T14:37:31.299Z,17.70
2023-04-27T14:39:59.753Z,17.80
2023-04-27T14:42:28.233Z,17.90
2023-04-27T14:44:56.656Z,17.90
2023-04-27T14:47:25.228Z,17.70
2023-04-27T14:49:55.211Z,17.70
2023-04-27T14:52:23.701Z,17.70
2023-04-27T14:54:52.309Z,17.80
2023-04-27T14:57:20.690Z,17.80
2023-04-27T14:59:49.204Z,17.80
2023-04-27T15:02:18.824Z,17.60
2023-04-27T15:04:47.495Z,17.60
2023-04-27T15:07:17.374Z,17.70
2023-04-27T15:09:46.207Z,17.70
2023-04-27T15:12:14.721Z,17.80
2023-04-27T15:14:43.198Z,17.80
2023-04-27T15:17:13.308Z,17.80
2023-04-27T15:19:41.727Z,17.80
2023-04-27T15:22:10.574Z,17.70
2023-04-27T15:24:40.538Z,17.70
2023-04-27T15:27:09.991Z,17.80
2023-04-27T15:29:38.598Z,17.60
2023-04-27T15:32:07.090Z,17.60
2023-04-27T15:34:35.687Z,17.60
2023-04-27T15:37:04.122Z,17.40
2023-04-27T15:39:32.550Z,17.40
2023-04-27T15:42:03.226Z,17.40
2023-04-27T15:44:31.809Z,17.50
2023-04-27T15:47:00.342Z,17.60
2023-04-27T15:49:30.010Z,17.50
2023-04-27T15:51:58.495Z,17.50
2023-04-27T15:54:27.110Z,17.50
2023-04-27T15:56:55.528Z,17.40
2023-04-27T15:59:25.514Z,17.50
2023-04-27T16:01:54.033Z,17.60
2023-04-27T16:04:22.988Z,17.60
2023-04-27T16:06:51.499Z,17.60
2023-04-27T16:09:20.264Z,17.60
2023-04-27T16:11:48.744Z,17.60
2023-04-27T16:14:17.206Z,17.70
2023-04-27T16:16:47.156Z,17.70
2023-04-27T16:19:16.188Z,17.80
2023-04-27T16:21:45.145Z,17.80
2023-04-27T16:24:13.669Z,17.80
2023-04-27T16:26:42.109Z,17.80
2023-04-27T16:29:10.537Z,17.80
2023-04-27T16:31:39.004Z,17.90
2023-04-27T16:34:08.807Z,17.90
2023-04-27T16:36:37.814Z,17.80
2023-04-27T16:39:06.295Z,17.70
2023-04-27T16:41:34.835Z,17.70
2023-04-27T16:44:03.223Z,17.70
2023-04-27T16:46:31.699Z,17.70
2023-04-27T16:49:00.183Z,17.70
2023-04-27T16:51:30.501Z,17.60
2023-04-27T16:53:59.236Z,17.50
2023-04-27T16:56:28.735Z,17.50
2023-04-27T16:58:57.531Z,17.40
2023-04-27T17:01:29.888Z,17.40
2023-04-27T17:03:59.010Z,17.30
2023-04-27T17:06:28.583Z,17.20
2023-04-27T17:08:58.804Z,17.20
2023-04-27T17:11:27.208Z,17.10
2023-04-27T17:13:55.638Z,17.00
2023-04-27T17:16:24.274Z,17.00
2023-04-27T17:18:52.818Z,17.00
2023-04-27T17:21:22.745Z,17.00
2023-04-27T17:23:53.190Z,16.90
2023-04-27T17:26:23.111Z,16.70
2023-04-27T17:28:52.257Z,16.60
2023-04-27T17:31:20.845Z,16.60
2023-04-27T17:33:49.370Z,16.60
2023-04-27T17:36:17.824Z,16.60
2023-04-27T17:38:46.454Z,16.60
2023-04-27T17:41:15.409Z,16.70
2023-04-27T17:43:45.236Z,16.70
2023-04-27T17:46:13.666Z,16.60
2023-04-27T17:48:42.326Z,16.60
2023-04-27T17:51:10.793Z,16.60
2023-04-27T17:53:39.285Z,16.50
2023-04-27T17:56:07.772Z,16.40
2023-04-27T17:58:36.341Z,16.30
2023-04-27T18:01:09.082Z,16.30
2023-04-27T18:03:37.634Z,16.30
2023-04-27T18:06:06.279Z,16.20
2023-04-27T18:08:34.687Z,16.20
2023-04-27T18:11:03.144Z,16.20
2023-04-27T18:13:32.618Z,16.20
2023-04-27T18:16:01.179Z,16.10
2023-04-27T18:18:31.134Z,16.10
2023-04-27T18:20:59.562Z,16.10
2023-04-27T18:23:28.017Z,16.10
2023-04-27T18:25:59.159Z,16.10
2023-04-27T18:28:27.615Z,16.10
2023-04-27T18:30:56.105Z,16.10
2023-04-27T18:33:24.517Z,16.10
2023-04-27T18:35:54.415Z,16.00
2023-04-27T18:38:22.861Z,16.00
2023-04-27T18:40:51.288Z,16.00
2023-04-27T18:43:19.808Z,16.00
2023-04-27T18:45:48.257Z,16.00
2023-04-27T18:48:16.686Z,16.00
2023-04-27T18:50:45.125Z,16.00
2023-04-27T18:53:14.963Z,16.00
2023-04-27T18:55:43.531Z,16.00
2023-04-27T18:58:11.975Z,15.90
2023-04-27T19:00:40.376Z,15.90
2023-04-27T19:03:09.348Z,15.90
2023-04-27T19:05:40.329Z,15.80
2023-04-27T19:08:09.100Z,15.70
2023-04-27T19:10:41.151Z,15.70
2023-04-27T19:13:10.077Z,15.70
2023-04-27T19:15:38.577Z,15.70
2023-04-27T19:18:11.050Z,15.70
2023-04-27T19:20:40.136Z,15.70
2023-04-27T19:23:09.675Z,15.70
2023-04-27T19:25:40.394Z,15.60
2023-04-27T19:28:09.497Z,15.50
2023-04-27T19:30:37.997Z,15.50
2023-04-27T19:33:06.562Z,15.50
2023-04-27T19:35:35.053Z,15.40
2023-04-27T19:38:03.506Z,15.40
2023-04-27T19:40:31.972Z,15.40
2023-04-27T19:43:01.865Z,15.30
2023-04-27T19:45:30.429Z,15.30
2023-04-27T19:47:58.894Z,15.20
2023-04-27T19:50:27.545Z,15.20
2023-04-27T19:52:55.960Z,15.20
2023-04-27T19:55:24.529Z,15.20
2023-04-27T19:57:52.942Z,15.20
2023-04-27T20:00:23.011Z,15.20
2023-04-27T20:02:53.462Z,15.20
2023-04-27T20:05:22.373Z,15.20
2023-04-27T20:07:51.148Z,15.20
2023-04-27T20:10:19.699Z,15.10
2023-04-27T20:12:56.182Z,15.10
2023-04-27T20:15:27.206Z,15.10
2023-04-27T20:17:55.738Z,15.10
2023-04-27T20:20:24.179Z,15.00
2023-04-27T20:22:52.625Z,14.90
2023-04-27T20:25:21.108Z,14.90
2023-04-27T20:27:49.554Z,14.90
2023-04-27T20:30:18.026Z,14.90
2023-04-27T20:32:48.654Z,14.80
2023-04-27T20:35:17.033Z,14.80
2023-04-27T20:37:46.131Z,14.80
2023-04-27T20:40:17.732Z,14.80
2023-04-27T20:42:46.578Z,14.80
2023-04-27T20:45:15.099Z,14.80
2023-04-27T20:47:43.604Z,14.80
2023-04-27T20:50:13.560Z,14.80
2023-04-27T20:52:42.042Z,14.90
2023-04-27T20:55:11.212Z,14.90
2023-04-27T20:57:39.729Z,14.90
2023-04-27T21:00:10.020Z,14.80
2023-04-27T21:02:38.517Z,14.80
2023-04-27T21:05:07.132Z,14.90
2023-04-27T21:07:37.055Z,14.80
2023-04-27T21:10:06.981Z,14.90
2023-04-27T21:12:35.669Z,14.80
2023-04-27T21:15:04.267Z,14.80
2023-04-27T21:17:32.871Z,14.80
2023-04-27T21:20:01.354Z,14.80
2023-04-27T21:22:29.806Z,14.80
2023-04-27T21:24:59.664Z,14.80
2023-04-27T21:27:28.993Z,14.90
2023-04-27T21:29:57.469Z,14.80
2023-04-27T21:32:25.927Z,14.70
2023-04-27T21:34:54.342Z,14.60
2023-04-27T21:37:22.806Z,14.40
2023-04-27T21:39:51.267Z,14.40
2023-04-27T21:42:21.150Z,14.40
2023-04-27T21:44:49.534Z,14.30
2023-04-27T21:47:18.055Z,14.30
2023-04-27T21:49:46.476Z,14.20
2023-04-27T21:52:14.918Z,14.10
2023-04-27T21:54:43.391Z,14.00
2023-04-27T21:57:11.801Z,14.00
2023-04-27T21:59:41.579Z,14.00
2023-04-27T22:02:10.241Z,14.10
2023-04-27T22:04:39.698Z,14.10
2023-04-27T22:07:08.993Z,14.10
2023-04-27T22:09:37.431Z,14.10
2023-04-27T22:12:06.691Z,14.10
2023-04-27T22:14:35.090Z,14.20
2023-04-27T22:17:04.933Z,14.20
2023-04-27T22:19:34.036Z,14.20
2023-04-27T22:22:02.534Z,14.20
2023-04-27T22:24:31.340Z,14.20
2023-04-27T22:26:59.747Z,14.20
2023-04-27T22:29:28.200Z,14.20
2023-04-27T22:31:56.945Z,14.20
2023-04-27T22:34:26.789Z,14.20
2023-04-27T22:36:55.524Z,14.20
2023-04-27T22:39:24.594Z,14.20
2023-04-27T22:41:53.022Z,14.20
2023-04-27T22:44:21.728Z,14.10
2023-04-27T22:46:50.283Z,14.10
2023-04-27T22:49:18.704Z,14.10
2023-04-27T22:51:48.494Z,14.10
2023-04-27T22:54:17.195Z,14.00
2023-04-27T22:56:45.969Z,14.10
2023-04-27T22:59:14.505Z,14.00
2023-04-27T23:01:43.019Z,14.00
2023-04-27T23:04:11.636Z,13.90
2023-04-27T23:06:40.172Z,13.80
2023-04-27T23:09:10.081Z,13.80
2023-04-27T23:11:38.520Z,13.70
2023-04-27T23:14:07.597Z,13.80
2023-04-27T23:16:37.346Z,13.70
2023-04-27T23:19:05.824Z,13.70
2023-04-27T23:21:34.261Z,13.70
2023-04-27T23:24:03.215Z,13.70
2023-04-27T23:26:33.181Z,13.80
2023-04-27T23:29:01.642Z,13.80
2023-04-27T23:31:30.278Z,13.90
2023-04-27T23:33:59.514Z,13.90
2023-04-27T23:36:28.192Z,13.80
2023-04-27T23:38:56.711Z,13.80
2023-04-27T23:41:25.213Z,13.80
2023-04-27T23:43:55.049Z,13.80
2023-04-27T23:46:23.541Z,13.80
2023-04-27T23:48:51.990Z,13.80
2023-04-27T23:51:20.924Z,13.80
2023-04-27T23:53:49.356Z,13.90
2023-04-27T23:56:18.509Z,13.90
2023-04-27T23:58:46.980Z,13.90
